ADDS METAR Data INFO
IDs: Format: Raw Decoded Include TAF

Data at: 1319 UTC 25 Feb 2018

K2V5 251315Z AUTO 28007KT 10SM CLR M07/M11 A2990 RMK AO2
K2V5 251255Z AUTO 25008KT 10SM CLR M07/M11 A2989 RMK AO2
K2V5 251235Z AUTO 25006KT 10SM CLR M07/M10 A2989 RMK AO2
K2V5 251215Z AUTO 24008KT 10SM CLR M07/M10 A2989 RMK AO2
K2V5 251155Z AUTO 24008KT 10SM CLR M06/M10 A2988 RMK AO2
K2V5 251135Z AUTO 24008KT 10SM CLR M06/M10 A2987 RMK AO2
K2V5 251115Z AUTO 25007KT 10SM CLR M05/M11 A2987 RMK AO2
K2V5 251055Z AUTO 25007KT 10SM CLR M05/M10 A2986 RMK AO2
K2V5 251035Z AUTO 25008KT 10SM CLR M05/M10 A2986 RMK AO2
K2V5 251015Z AUTO 26006KT 10SM CLR M05/M10 A2986 RMK AO2
K2V5 250955Z AUTO 25006KT 10SM CLR M04/M09 A2986 RMK AO2
K2V5 250935Z AUTO 26006KT 10SM CLR M04/M09 A2987 RMK AO2
K2V5 250915Z AUTO 24006KT 10SM SCT120 M04/M09 A2987 RMK AO2
K2V5 250855Z AUTO 24006KT 10SM CLR M03/M10 A2988 RMK AO2
K2V5 250835Z AUTO 26007KT 10SM SCT120 M02/M10 A2989 RMK AO2
K2V5 250815Z AUTO 24006KT 10SM SCT120 M02/M10 A2989 RMK AO2
K2V5 250755Z AUTO 23008KT 10SM BKN110 M02/M09 A2989 RMK AO2
K2V5 250735Z AUTO 23008KT 10SM BKN110 M02/M09 A2989 RMK AO2
K2V5 250715Z AUTO 24007KT 10SM BKN110 M02/M10 A2989 RMK AO2
K2V5 250655Z AUTO 23005KT 10SM OVC110 M02/M08 A2988 RMK AO2
K2V5 250635Z AUTO 28006KT 10SM OVC110 M02/M09 A2987 RMK AO2
K2V5 250615Z AUTO 25005KT 10SM OVC110 M02/M09 A2989 RMK AO2
K2V5 250555Z AUTO 24005KT 10SM BKN120 M02/M09 A2988 RMK AO2
K2V5 250535Z AUTO 27006KT 10SM SCT120 M02/M10 A2987 RMK AO2
K2V5 250515Z AUTO 26006KT 10SM CLR M02/M10 A2987 RMK AO2
K2V5 250455Z AUTO 24006KT 10SM CLR M03/M09 A2987 RMK AO2
K2V5 250435Z AUTO 25004KT 10SM CLR M03/M09 A2986 RMK AO2
K2V5 250415Z AUTO 23007KT 10SM CLR M04/M09 A2986 RMK AO2
K2V5 250355Z AUTO 22003KT 10SM CLR M05/M10 A2985 RMK AO2
K2V5 250335Z AUTO 24003KT 10SM CLR M05/M10 A2985 RMK AO2
K2V5 250315Z AUTO 30003KT 10SM CLR M03/M10 A2985 RMK AO2
K2V5 250255Z AUTO 34008G14KT 10SM CLR M02/M10 A2984 RMK AO2
K2V5 250235Z AUTO 33009KT 10SM CLR M02/M10 A2983 RMK AO2
K2V5 250215Z AUTO 33010KT 10SM CLR M01/M11 A2983 RMK AO2
K2V5 250155Z AUTO 34011KT 10SM CLR M01/M11 A2983 RMK AO2
K2V5 250135Z AUTO 34011KT 10SM CLR M01/M11 A2983 RMK AO2
K2V5 250115Z AUTO 34012KT 10SM CLR M01/M11 A2982 RMK AO2
K2V5 250055Z AUTO 33010KT 10SM CLR 00/M11 A2982 RMK AO2
K2V5 250035Z AUTO 35012KT 10SM CLR 00/M12 A2981 RMK AO2
K2V5 250015Z AUTO 33015G22KT 10SM CLR 01/M13 A2981 RMK AO2
K2V5 242355Z AUTO 33020G28KT 10SM CLR 02/M13 A2981 RMK AO2
K2V5 242335Z AUTO 33024G31KT 10SM CLR 02/M13 A2981 RMK AO2
K2V5 242315Z AUTO 33022G34KT 10SM CLR 03/M12 A2980 RMK AO2
K2V5 242255Z AUTO 33025G33KT 10SM CLR 03/M13 A2979 RMK AO2
K2V5 242235Z AUTO 31027G35KT 10SM CLR 03/M14 A2978 RMK AO2
K2V5 242215Z AUTO 33024G30KT 10SM CLR 04/M13 A2978 RMK AO2
K2V5 242155Z AUTO 32023G34KT 10SM CLR 04/M13 A2977 RMK AO2
K2V5 242135Z AUTO 32027G32KT 10SM CLR 04/M13 A2977 RMK AO2
K2V5 242115Z AUTO 31020G32KT 10SM CLR 04/M13 A2976 RMK AO2
K2V5 242055Z AUTO 32021G35KT 10SM CLR 04/M13 A2977 RMK AO2
K2V5 242035Z AUTO 31027G35KT 10SM CLR 04/M13 A2976 RMK AO2
K2V5 242015Z AUTO 31024G35KT 10SM CLR 03/M12 A2976 RMK AO2
K2V5 241955Z AUTO 31024G32KT 10SM CLR 03/M12 A2977 RMK AO2
K2V5 241935Z AUTO 31027G36KT 10SM CLR 03/M13 A2976 RMK AO2
K2V5 241915Z AUTO 31027G39KT 10SM CLR 03/M12 A2977 RMK AO2
K2V5 241855Z AUTO 31031G38KT 10SM CLR 02/M12 A2977 RMK AO2
K2V5 241835Z AUTO 31033G39KT 10SM CLR 02/M13 A2977 RMK AO2
K2V5 241815Z AUTO 31030G38KT 10SM CLR 02/M12 A2978 RMK AO2
K2V5 241755Z AUTO 31022G31KT 10SM CLR 02/M09 A2977 RMK AO2
K2V5 241735Z AUTO 31024G29KT 10SM CLR 02/M08 A2977 RMK AO2
K2V5 241715Z AUTO 31016G20KT 10SM CLR 01/M05 A2977 RMK AO2
K2V5 241655Z AUTO 31018G24KT 10SM CLR 01/M04 A2978 RMK AO2
K2V5 241635Z AUTO 30011G16KT 10SM CLR 00/M03 A2978 RMK AO2
K2V5 241615Z AUTO 29011KT 10SM CLR 00/M03 A2978 RMK AO2
K2V5 241555Z AUTO 10SM BKN060 M01/M03 A2979 RMK AO2
K2V5 241535Z AUTO 10SM BKN060 BKN080 M02/M03 A2980 RMK AO2
K2V5 241515Z AUTO 27005KT 10SM SCT017 SCT034 BKN080 M02/M03 A2981 RMK AO2
K2V5 241455Z AUTO 27003KT 4SM -SN SCT018 BKN026 OVC049 M03/M03 A2981 RMK AO2
K2V5 241435Z AUTO 2SM -SN BKN007 OVC016 M03/M03 A2981 RMK AO2
K2V5 241415Z AUTO 00000KT 10SM OVC007 M03/M03 A2981 RMK AO2
K2V5 241355Z AUTO 00000KT 10SM OVC009 M03/M03 A2982 RMK AO2
K2V5 241335Z AUTO 00000KT 10SM OVC009 M03/M03 A2982 RMK AO2
K2V5 241315Z AUTO 00000KT 10SM BKN009 OVC013 M04/M04 A2983 RMK AO2
K2V5 241255Z AUTO 00000KT 10SM BKN015 OVC022 M04/M04 A2983 RMK AO2
K2V5 241235Z AUTO 09003KT 10SM BKN015 BKN020 OVC029 M04/M04 A2983 RMK AO2
K2V5 241215Z AUTO 00000KT 10SM -SN SCT006 BKN017 OVC031 M04/M04 A2983 RMK AO2
K2V5 241155Z AUTO 10003KT 7SM BKN006 OVC021 M04/M04 A2983 RMK AO2
K2V5 241135Z AUTO 11004KT 10SM SCT006 SCT019 OVC050 M04/M04 A2983 RMK AO2
K2V5 241115Z AUTO 11004KT 5SM -SN SCT008 BKN042 OVC049 M04/M04 A2983 RMK AO2
K2V5 241055Z AUTO 12004KT 2 1/2SM -SN BKN010 OVC016 M04/M04 A2985 RMK AO2
K2V5 241035Z AUTO 16004KT 2 1/2SM -SN OVC008 M04/M04 A2986 RMK AO2
K2V5 241015Z AUTO 13006KT 1 1/2SM -SN OVC006 M04/M04 A2985 RMK AO2
K2V5 240955Z AUTO 12008KT 1 3/4SM -SN OVC003 M04/M04 A2987 RMK AO2
K2V5 240935Z AUTO 11007KT 3SM -SN OVC003 M04/M04 A2988 RMK AO2
K2V5 240915Z AUTO 11009KT 3SM -SN OVC003 M05/M05 A2989 RMK AO2
K2V5 240855Z AUTO 10007KT 2 1/2SM -SN BKN005 OVC008 M05/M05 A2990 RMK AO2
K2V5 240835Z AUTO 11011KT 4SM -SN BKN005 OVC014 M05/M06 A2992 RMK AO2
K2V5 240815Z AUTO 10010KT 2 1/2SM -SN SCT007 OVC013 M04/M05 A2993 RMK AO2
K2V5 240755Z AUTO 09010KT 3SM -SN SCT005 OVC011 M04/M05 A2994 RMK AO2
K2V5 240735Z AUTO 10008KT 2SM -SN OVC005 M03/M04 A2994 RMK AO2
K2V5 240715Z AUTO 12004KT 3SM -SN SCT005 BKN022 OVC046 M03/M03 A2995 RMK AO2
K2V5 240655Z AUTO 14005KT 4SM BR SCT009 BKN024 OVC046 M03/M04 A2996 RMK AO2
K2V5 240635Z AUTO 15006KT 7SM OVC011 M02/M05 A2997 RMK AO2
K2V5 240615Z AUTO 15006KT 10SM OVC011 M02/M05 A2999 RMK AO2
K2V5 240555Z AUTO 14007KT 10SM OVC011 M02/M05 A3000 RMK AO2
K2V5 240535Z AUTO 15009KT 10SM OVC011 M02/M05 A3000 RMK AO2
K2V5 240515Z AUTO 14008KT 10SM OVC013 M02/M05 A3001 RMK AO2
K2V5 240455Z AUTO 13010KT 10SM OVC013 M02/M05 A3002 RMK AO2
K2V5 240435Z AUTO 13011G15KT 10SM OVC015 M02/M05 A3003 RMK AO2
K2V5 240415Z AUTO 11009KT 10SM BKN015 OVC020 M02/M04 A3002 RMK AO2
K2V5 240355Z AUTO 11005KT 10SM BKN020 OVC029 M02/M04 A3002 RMK AO2
K2V5 240335Z AUTO 10009KT 10SM OVC029 M02/M04 A3001 RMK AO2
K2V5 240315Z AUTO 09012G16KT 10SM OVC029 M02/M04 A3001 RMK AO2
K2V5 240255Z AUTO 08008KT 10SM OVC029 M02/M04 A3001 RMK AO2
K2V5 240235Z AUTO 09008KT 10SM OVC031 M02/M04 A3002 RMK AO2
K2V5 240215Z AUTO 09009KT 10SM OVC031 M02/M04 A3002 RMK AO2
K2V5 240155Z AUTO 08008KT 10SM OVC031 M01/M04 A3003 RMK AO2
K2V5 240135Z AUTO 08008KT 10SM OVC031 M01/M05 A3002 RMK AO2